sensor_id;sensor_type;location;lat;lon;timestamp;P1;durP1;ratioP1;P2;durP2;ratioP2
40367;SDS011;26075;43.320;21.920;2023-03-31T00:01:47;29.10;;;14.88;;
40367;SDS011;26075;43.320;21.920;2023-03-31T00:06:48;25.92;;;14.05;;
40367;SDS011;26075;43.320;21.920;2023-03-31T00:11:53;24.75;;;14.07;;
40367;SDS011;26075;43.320;21.920;2023-03-31T00:16:54;23.90;;;13.57;;
40367;SDS011;26075;43.320;21.920;2023-03-31T00:21:57;27.92;;;15.35;;
40367;SDS011;26075;43.320;21.920;2023-03-31T00:27:02;33.17;;;18.95;;
40367;SDS011;26075;43.320;21.920;2023-03-31T00:32:03;39.60;;;19.08;;
40367;SDS011;26075;43.320;21.920;2023-03-31T00:37:05;37.88;;;21.30;;
40367;SDS011;26075;43.320;21.920;2023-03-31T00:42:11;40.63;;;22.05;;
40367;SDS011;26075;43.320;21.920;2023-03-31T00:47:12;33.25;;;17.20;;
40367;SDS011;26075;43.320;21.920;2023-03-31T00:52:16;43.05;;;22.95;;
40367;SDS011;26075;43.320;21.920;2023-03-31T00:57:22;41.08;;;21.08;;
40367;SDS011;26075;43.320;21.920;2023-03-31T01:02:27;29.60;;;16.50;;
40367;SDS011;26075;43.320;21.920;2023-03-31T01:07:36;29.95;;;15.70;;
40367;SDS011;26075;43.320;21.920;2023-03-31T01:12:46;28.85;;;15.40;;
40367;SDS011;26075;43.320;21.920;2023-03-31T01:17:51;33.63;;;16.75;;
40367;SDS011;26075;43.320;21.920;2023-03-31T01:53:47;29.85;;;17.40;;
40367;SDS011;26075;43.320;21.920;2023-03-31T01:59:28;28.02;;;14.68;;
40367;SDS011;26075;43.320;21.920;2023-03-31T02:09:38;32.20;;;21.92;;
40367;SDS011;26075;43.320;21.920;2023-03-31T02:14:43;36.83;;;21.38;;
40367;SDS011;26075;43.320;21.920;2023-03-31T02:24:49;37.10;;;22.90;;
40367;SDS011;26075;43.320;21.920;2023-03-31T02:29:52;30.60;;;20.48;;
40367;SDS011;26075;43.320;21.920;2023-03-31T02:34:54;42.92;;;23.05;;
40367;SDS011;26075;43.320;21.920;2023-03-31T02:39:56;36.88;;;21.55;;
40367;SDS011;26075;43.320;21.920;2023-03-31T02:45:01;36.90;;;22.20;;
40367;SDS011;26075;43.320;21.920;2023-03-31T02:50:02;39.92;;;21.95;;
40367;SDS011;26075;43.320;21.920;2023-03-31T03:01:10;34.88;;;20.42;;
40367;SDS011;26075;43.320;21.920;2023-03-31T03:17:05;26.98;;;15.98;;
40367;SDS011;26075;43.320;21.920;2023-03-31T03:22:07;31.05;;;15.20;;
40367;SDS011;26075;43.320;21.920;2023-03-31T03:27:08;20.27;;;12.05;;
40367;SDS011;26075;43.320;21.920;2023-03-31T03:32:09;27.55;;;13.95;;
40367;SDS011;26075;43.320;21.920;2023-03-31T03:37:10;20.38;;;10.52;;
40367;SDS011;26075;43.320;21.920;2023-03-31T03:42:12;20.23;;;8.90;;
40367;SDS011;26075;43.320;21.920;2023-03-31T03:47:13;21.52;;;9.55;;
40367;SDS011;26075;43.320;21.920;2023-03-31T03:52:14;19.52;;;8.18;;
40367;SDS011;26075;43.320;21.920;2023-03-31T03:57:15;23.98;;;10.35;;
40367;SDS011;26075;43.320;21.920;2023-03-31T04:02:16;33.42;;;16.77;;
40367;SDS011;26075;43.320;21.920;2023-03-31T04:07:17;30.52;;;18.73;;
40367;SDS011;26075;43.320;21.920;2023-03-31T04:12:18;30.60;;;16.88;;
40367;SDS011;26075;43.320;21.920;2023-03-31T04:17:20;37.08;;;17.50;;
40367;SDS011;26075;43.320;21.920;2023-03-31T04:22:31;30.80;;;17.45;;
40367;SDS011;26075;43.320;21.920;2023-03-31T04:27:40;32.25;;;18.00;;
40367;SDS011;26075;43.320;21.920;2023-03-31T04:32:54;39.28;;;16.83;;
40367;SDS011;26075;43.320;21.920;2023-03-31T04:37:55;30.63;;;17.02;;
40367;SDS011;26075;43.320;21.920;2023-03-31T04:43:01;35.03;;;18.15;;
40367;SDS011;26075;43.320;21.920;2023-03-31T04:48:02;42.85;;;17.73;;
40367;SDS011;26075;43.320;21.920;2023-03-31T04:53:04;39.20;;;17.83;;
40367;SDS011;26075;43.320;21.920;2023-03-31T04:58:05;36.10;;;16.55;;
40367;SDS011;26075;43.320;21.920;2023-03-31T05:03:06;33.53;;;17.38;;
40367;SDS011;26075;43.320;21.920;2023-03-31T05:08:08;29.98;;;15.38;;
40367;SDS011;26075;43.320;21.920;2023-03-31T05:13:09;35.65;;;18.80;;
40367;SDS011;26075;43.320;21.920;2023-03-31T05:18:10;34.70;;;16.08;;
40367;SDS011;26075;43.320;21.920;2023-03-31T05:23:12;36.08;;;18.80;;
40367;SDS011;26075;43.320;21.920;2023-03-31T05:28:13;44.83;;;22.20;;
40367;SDS011;26075;43.320;21.920;2023-03-31T05:33:14;35.42;;;15.45;;
40367;SDS011;26075;43.320;21.920;2023-03-31T05:38:15;22.08;;;11.40;;
40367;SDS011;26075;43.320;21.920;2023-03-31T05:43:16;17.45;;;6.80;;
40367;SDS011;26075;43.320;21.920;2023-03-31T05:48:17;23.52;;;8.30;;
40367;SDS011;26075;43.320;21.920;2023-03-31T05:53:18;18.92;;;7.95;;
40367;SDS011;26075;43.320;21.920;2023-03-31T05:58:20;23.48;;;11.05;;
40367;SDS011;26075;43.320;21.920;2023-03-31T06:03:21;25.33;;;12.25;;
40367;SDS011;26075;43.320;21.920;2023-03-31T06:08:22;32.80;;;14.18;;
40367;SDS011;26075;43.320;21.920;2023-03-31T06:13:23;36.00;;;14.85;;
40367;SDS011;26075;43.320;21.920;2023-03-31T06:18:25;35.55;;;15.63;;
40367;SDS011;26075;43.320;21.920;2023-03-31T06:23:27;34.40;;;15.50;;
40367;SDS011;26075;43.320;21.920;2023-03-31T06:28:29;29.17;;;14.07;;
40367;SDS011;26075;43.320;21.920;2023-03-31T06:33:30;29.80;;;15.05;;
40367;SDS011;26075;43.320;21.920;2023-03-31T06:38:32;26.80;;;14.57;;
40367;SDS011;26075;43.320;21.920;2023-03-31T06:43:33;19.98;;;10.75;;
40367;SDS011;26075;43.320;21.920;2023-03-31T06:48:35;26.75;;;11.57;;
40367;SDS011;26075;43.320;21.920;2023-03-31T06:53:36;20.88;;;11.95;;
40367;SDS011;26075;43.320;21.920;2023-03-31T06:58:37;25.55;;;11.23;;
40367;SDS011;26075;43.320;21.920;2023-03-31T07:03:38;29.52;;;10.27;;
40367;SDS011;26075;43.320;21.920;2023-03-31T07:08:39;19.95;;;10.20;;
40367;SDS011;26075;43.320;21.920;2023-03-31T07:13:40;18.25;;;9.52;;
40367;SDS011;26075;43.320;21.920;2023-03-31T07:18:41;22.38;;;11.95;;
40367;SDS011;26075;43.320;21.920;2023-03-31T07:23:42;22.65;;;11.57;;
40367;SDS011;26075;43.320;21.920;2023-03-31T07:28:43;27.48;;;11.82;;
40367;SDS011;26075;43.320;21.920;2023-03-31T07:33:44;31.35;;;12.73;;
40367;SDS011;26075;43.320;21.920;2023-03-31T07:38:45;24.80;;;11.98;;
40367;SDS011;26075;43.320;21.920;2023-03-31T07:43:48;26.45;;;11.85;;
40367;SDS011;26075;43.320;21.920;2023-03-31T07:48:50;44.05;;;18.48;;
40367;SDS011;26075;43.320;21.920;2023-03-31T07:53:51;32.45;;;15.82;;
40367;SDS011;26075;43.320;21.920;2023-03-31T07:58:53;31.00;;;15.80;;
40367;SDS011;26075;43.320;21.920;2023-03-31T08:03:55;34.05;;;16.02;;
40367;SDS011;26075;43.320;21.920;2023-03-31T08:08:56;25.10;;;14.32;;
40367;SDS011;26075;43.320;21.920;2023-03-31T08:13:57;23.65;;;12.63;;
40367;SDS011;26075;43.320;21.920;2023-03-31T08:18:59;26.42;;;12.38;;
40367;SDS011;26075;43.320;21.920;2023-03-31T08:24:00;23.35;;;11.88;;
40367;SDS011;26075;43.320;21.920;2023-03-31T08:29:02;21.73;;;11.57;;
40367;SDS011;26075;43.320;21.920;2023-03-31T08:34:03;16.13;;;9.48;;
40367;SDS011;26075;43.320;21.920;2023-03-31T08:39:04;20.30;;;10.88;;
40367;SDS011;26075;43.320;21.920;2023-03-31T08:44:08;26.00;;;11.82;;
40367;SDS011;26075;43.320;21.920;2023-03-31T08:49:14;20.17;;;9.23;;
40367;SDS011;26075;43.320;21.920;2023-03-31T08:54:23;22.95;;;10.57;;
40367;SDS011;26075;43.320;21.920;2023-03-31T09:09:56;25.95;;;10.63;;
40367;SDS011;26075;43.320;21.920;2023-03-31T09:15:08;29.15;;;10.52;;
40367;SDS011;26075;43.320;21.920;2023-03-31T09:20:12;24.17;;;11.02;;
40367;SDS011;26075;43.320;21.920;2023-03-31T09:25:36;21.50;;;10.68;;
40367;SDS011;26075;43.320;21.920;2023-03-31T09:30:40;15.98;;;6.55;;
40367;SDS011;26075;43.320;21.920;2023-03-31T09:35:41;6.90;;;3.17;;
40367;SDS011;26075;43.320;21.920;2023-03-31T09:40:43;13.10;;;3.45;;
40367;SDS011;26075;43.320;21.920;2023-03-31T09:45:44;11.85;;;3.75;;
40367;SDS011;26075;43.320;21.920;2023-03-31T09:50:48;8.00;;;3.35;;
40367;SDS011;26075;43.320;21.920;2023-03-31T09:55:51;7.57;;;3.40;;
40367;SDS011;26075;43.320;21.920;2023-03-31T10:00:59;9.95;;;2.92;;
40367;SDS011;26075;43.320;21.920;2023-03-31T10:06:07;9.10;;;3.03;;
40367;SDS011;26075;43.320;21.920;2023-03-31T10:11:10;8.48;;;3.72;;
40367;SDS011;26075;43.320;21.920;2023-03-31T10:16:22;8.32;;;3.95;;
40367;SDS011;26075;43.320;21.920;2023-03-31T10:21:27;9.23;;;2.95;;
40367;SDS011;26075;43.320;21.920;2023-03-31T10:26:35;12.57;;;3.08;;
40367;SDS011;26075;43.320;21.920;2023-03-31T10:31:36;8.32;;;2.72;;
40367;SDS011;26075;43.320;21.920;2023-03-31T10:36:37;5.90;;;2.78;;
40367;SDS011;26075;43.320;21.920;2023-03-31T10:41:39;5.38;;;2.08;;
40367;SDS011;26075;43.320;21.920;2023-03-31T10:46:51;12.07;;;2.72;;
40367;SDS011;26075;43.320;21.920;2023-03-31T10:51:53;9.50;;;2.88;;
40367;SDS011;26075;43.320;21.920;2023-03-31T10:56:56;8.85;;;2.15;;
40367;SDS011;26075;43.320;21.920;2023-03-31T11:44:28;10.25;;;2.70;;
40367;SDS011;26075;43.320;21.920;2023-03-31T12:00:05;6.60;;;2.95;;
40367;SDS011;26075;43.320;21.920;2023-03-31T12:05:09;6.15;;;2.58;;
40367;SDS011;26075;43.320;21.920;2023-03-31T12:25:24;7.65;;;2.47;;
40367;SDS011;26075;43.320;21.920;2023-03-31T12:30:40;7.75;;;2.78;;
40367;SDS011;26075;43.320;21.920;2023-03-31T13:17:36;5.90;;;2.95;;
40367;SDS011;26075;43.320;21.920;2023-03-31T13:22:37;9.75;;;3.00;;
40367;SDS011;26075;43.320;21.920;2023-03-31T13:27:48;7.05;;;3.00;;
40367;SDS011;26075;43.320;21.920;2023-03-31T13:38:29;6.82;;;3.10;;
40367;SDS011;26075;43.320;21.920;2023-03-31T13:55:08;10.95;;;4.38;;
40367;SDS011;26075;43.320;21.920;2023-03-31T14:05:38;8.13;;;3.40;;
40367;SDS011;26075;43.320;21.920;2023-03-31T14:10:41;6.85;;;3.72;;
40367;SDS011;26075;43.320;21.920;2023-03-31T14:20:58;8.05;;;3.38;;
40367;SDS011;26075;43.320;21.920;2023-03-31T14:31:14;8.82;;;3.17;;
40367;SDS011;26075;43.320;21.920;2023-03-31T14:36:39;7.18;;;3.35;;
40367;SDS011;26075;43.320;21.920;2023-03-31T14:42:17;8.25;;;3.00;;
40367;SDS011;26075;43.320;21.920;2023-03-31T14:47:21;10.75;;;2.83;;
40367;SDS011;26075;43.320;21.920;2023-03-31T14:52:23;6.22;;;2.50;;
40367;SDS011;26075;43.320;21.920;2023-03-31T14:57:29;7.57;;;2.60;;
40367;SDS011;26075;43.320;21.920;2023-03-31T15:02:36;5.82;;;2.90;;
40367;SDS011;26075;43.320;21.920;2023-03-31T15:07:39;5.38;;;2.47;;
40367;SDS011;26075;43.320;21.920;2023-03-31T15:12:40;10.57;;;3.97;;
40367;SDS011;26075;43.320;21.920;2023-03-31T15:17:42;5.28;;;2.80;;
40367;SDS011;26075;43.320;21.920;2023-03-31T15:22:43;6.68;;;3.10;;
40367;SDS011;26075;43.320;21.920;2023-03-31T15:27:48;5.80;;;2.75;;
40367;SDS011;26075;43.320;21.920;2023-03-31T15:32:50;7.72;;;3.15;;
40367;SDS011;26075;43.320;21.920;2023-03-31T15:37:53;9.13;;;3.22;;
40367;SDS011;26075;43.320;21.920;2023-03-31T15:42:56;8.27;;;3.28;;
40367;SDS011;26075;43.320;21.920;2023-03-31T15:48:03;9.45;;;2.90;;
40367;SDS011;26075;43.320;21.920;2023-03-31T15:53:18;10.00;;;3.13;;
40367;SDS011;26075;43.320;21.920;2023-03-31T15:58:44;8.13;;;3.35;;
40367;SDS011;26075;43.320;21.920;2023-03-31T16:03:56;8.88;;;4.10;;
40367;SDS011;26075;43.320;21.920;2023-03-31T16:09:01;8.77;;;3.63;;
40367;SDS011;26075;43.320;21.920;2023-03-31T16:14:07;11.05;;;4.57;;
40367;SDS011;26075;43.320;21.920;2023-03-31T16:19:09;12.32;;;5.05;;
40367;SDS011;26075;43.320;21.920;2023-03-31T16:24:10;13.07;;;5.25;;
40367;SDS011;26075;43.320;21.920;2023-03-31T16:29:20;12.27;;;5.53;;
40367;SDS011;26075;43.320;21.920;2023-03-31T16:34:21;14.95;;;5.32;;
40367;SDS011;26075;43.320;21.920;2023-03-31T16:39:22;17.33;;;6.30;;
40367;SDS011;26075;43.320;21.920;2023-03-31T16:44:24;16.27;;;6.35;;
40367;SDS011;26075;43.320;21.920;2023-03-31T16:49:25;17.38;;;6.97;;
40367;SDS011;26075;43.320;21.920;2023-03-31T16:54:26;14.00;;;7.10;;
40367;SDS011;26075;43.320;21.920;2023-03-31T16:59:27;18.63;;;6.13;;
40367;SDS011;26075;43.320;21.920;2023-03-31T17:04:28;12.70;;;6.53;;
40367;SDS011;26075;43.320;21.920;2023-03-31T17:09:29;21.20;;;7.20;;
40367;SDS011;26075;43.320;21.920;2023-03-31T17:14:30;19.10;;;8.65;;
40367;SDS011;26075;43.320;21.920;2023-03-31T17:19:31;14.70;;;6.90;;
40367;SDS011;26075;43.320;21.920;2023-03-31T17:24:32;17.75;;;8.70;;
40367;SDS011;26075;43.320;21.920;2023-03-31T17:29:33;15.30;;;7.13;;
40367;SDS011;26075;43.320;21.920;2023-03-31T17:34:34;14.25;;;7.28;;
40367;SDS011;26075;43.320;21.920;2023-03-31T17:39:35;11.68;;;5.28;;
40367;SDS011;26075;43.320;21.920;2023-03-31T17:44:36;14.68;;;4.60;;
40367;SDS011;26075;43.320;21.920;2023-03-31T17:49:37;13.63;;;7.20;;
40367;SDS011;26075;43.320;21.920;2023-03-31T17:54:39;14.82;;;6.88;;
40367;SDS011;26075;43.320;21.920;2023-03-31T17:59:40;20.13;;;8.10;;
40367;SDS011;26075;43.320;21.920;2023-03-31T18:04:41;15.35;;;6.88;;
40367;SDS011;26075;43.320;21.920;2023-03-31T18:09:43;19.75;;;7.80;;
40367;SDS011;26075;43.320;21.920;2023-03-31T18:14:44;12.93;;;6.85;;
40367;SDS011;26075;43.320;21.920;2023-03-31T18:19:46;14.10;;;5.45;;
40367;SDS011;26075;43.320;21.920;2023-03-31T18:24:46;12.38;;;4.85;;
40367;SDS011;26075;43.320;21.920;2023-03-31T18:29:47;10.10;;;4.72;;
40367;SDS011;26075;43.320;21.920;2023-03-31T18:34:48;11.65;;;4.47;;
40367;SDS011;26075;43.320;21.920;2023-03-31T18:39:50;9.73;;;4.78;;
40367;SDS011;26075;43.320;21.920;2023-03-31T18:44:51;9.70;;;4.80;;
40367;SDS011;26075;43.320;21.920;2023-03-31T18:49:52;9.70;;;5.30;;
40367;SDS011;26075;43.320;21.920;2023-03-31T18:54:54;13.13;;;4.95;;
40367;SDS011;26075;43.320;21.920;2023-03-31T18:59:55;11.23;;;4.80;;
40367;SDS011;26075;43.320;21.920;2023-03-31T19:04:56;10.18;;;3.60;;
40367;SDS011;26075;43.320;21.920;2023-03-31T19:09:58;10.32;;;4.63;;
40367;SDS011;26075;43.320;21.920;2023-03-31T19:14:59;11.85;;;4.38;;
40367;SDS011;26075;43.320;21.920;2023-03-31T19:20:01;12.52;;;6.75;;
40367;SDS011;26075;43.320;21.920;2023-03-31T19:25:04;12.93;;;3.90;;
40367;SDS011;26075;43.320;21.920;2023-03-31T19:30:05;10.73;;;3.90;;
40367;SDS011;26075;43.320;21.920;2023-03-31T19:35:07;10.32;;;5.43;;
40367;SDS011;26075;43.320;21.920;2023-03-31T19:40:08;11.45;;;4.05;;
40367;SDS011;26075;43.320;21.920;2023-03-31T19:45:09;10.02;;;4.13;;
40367;SDS011;26075;43.320;21.920;2023-03-31T19:50:11;10.63;;;4.55;;
40367;SDS011;26075;43.320;21.920;2023-03-31T19:55:12;9.73;;;4.70;;
40367;SDS011;26075;43.320;21.920;2023-03-31T20:00:13;12.35;;;5.05;;
40367;SDS011;26075;43.320;21.920;2023-03-31T20:05:17;10.60;;;5.22;;
40367;SDS011;26075;43.320;21.920;2023-03-31T20:10:18;16.35;;;6.28;;
40367;SDS011;26075;43.320;21.920;2023-03-31T20:15:19;12.73;;;5.70;;
40367;SDS011;26075;43.320;21.920;2023-03-31T20:20:20;14.30;;;5.07;;
40367;SDS011;26075;43.320;21.920;2023-03-31T20:25:22;8.52;;;4.78;;
40367;SDS011;26075;43.320;21.920;2023-03-31T20:30:23;13.05;;;5.68;;
40367;SDS011;26075;43.320;21.920;2023-03-31T20:35:24;11.88;;;4.65;;
40367;SDS011;26075;43.320;21.920;2023-03-31T20:40:26;10.32;;;4.35;;
40367;SDS011;26075;43.320;21.920;2023-03-31T20:45:27;11.98;;;3.95;;
40367;SDS011;26075;43.320;21.920;2023-03-31T20:50:28;9.05;;;3.33;;
40367;SDS011;26075;43.320;21.920;2023-03-31T20:55:30;9.13;;;4.80;;
40367;SDS011;26075;43.320;21.920;2023-03-31T21:00:31;12.00;;;4.60;;
40367;SDS011;26075;43.320;21.920;2023-03-31T21:05:38;11.70;;;4.20;;
40367;SDS011;26075;43.320;21.920;2023-03-31T21:10:40;8.80;;;3.90;;
40367;SDS011;26075;43.320;21.920;2023-03-31T21:15:46;13.93;;;5.60;;
40367;SDS011;26075;43.320;21.920;2023-03-31T21:20:51;15.35;;;4.80;;
40367;SDS011;26075;43.320;21.920;2023-03-31T21:31:04;12.18;;;4.18;;
40367;SDS011;26075;43.320;21.920;2023-03-31T21:36:07;9.60;;;3.67;;
40367;SDS011;26075;43.320;21.920;2023-03-31T21:41:16;11.73;;;3.55;;
40367;SDS011;26075;43.320;21.920;2023-03-31T21:46:19;10.60;;;4.00;;
40367;SDS011;26075;43.320;21.920;2023-03-31T21:51:20;14.52;;;4.95;;
40367;SDS011;26075;43.320;21.920;2023-03-31T21:56:22;11.38;;;4.38;;
40367;SDS011;26075;43.320;21.920;2023-03-31T22:01:23;21.02;;;10.40;;
40367;SDS011;26075;43.320;21.920;2023-03-31T22:06:24;13.43;;;8.13;;
40367;SDS011;26075;43.320;21.920;2023-03-31T22:11:25;15.70;;;5.43;;
40367;SDS011;26075;43.320;21.920;2023-03-31T22:16:27;14.50;;;4.75;;
40367;SDS011;26075;43.320;21.920;2023-03-31T22:21:28;13.55;;;5.07;;
40367;SDS011;26075;43.320;21.920;2023-03-31T22:26:29;19.90;;;7.45;;
40367;SDS011;26075;43.320;21.920;2023-03-31T22:31:31;19.25;;;7.22;;
40367;SDS011;26075;43.320;21.920;2023-03-31T22:36:32;32.15;;;10.10;;
40367;SDS011;26075;43.320;21.920;2023-03-31T22:41:33;25.10;;;6.97;;
40367;SDS011;26075;43.320;21.920;2023-03-31T22:46:35;19.13;;;7.00;;
40367;SDS011;26075;43.320;21.920;2023-03-31T22:51:38;19.48;;;8.30;;
40367;SDS011;26075;43.320;21.920;2023-03-31T22:56:44;18.00;;;7.07;;
40367;SDS011;26075;43.320;21.920;2023-03-31T23:01:45;18.98;;;8.88;;
40367;SDS011;26075;43.320;21.920;2023-03-31T23:06:46;22.10;;;9.05;;
40367;SDS011;26075;43.320;21.920;2023-03-31T23:11:48;20.65;;;10.90;;
40367;SDS011;26075;43.320;21.920;2023-03-31T23:16:49;24.83;;;11.18;;
40367;SDS011;26075;43.320;21.920;2023-03-31T23:21:51;23.30;;;10.63;;
40367;SDS011;26075;43.320;21.920;2023-03-31T23:26:52;20.58;;;8.52;;
40367;SDS011;26075;43.320;21.920;2023-03-31T23:31:54;14.95;;;7.65;;
40367;SDS011;26075;43.320;21.920;2023-03-31T23:36:55;17.17;;;7.65;;
40367;SDS011;26075;43.320;21.920;2023-03-31T23:41:56;21.90;;;8.40;;
40367;SDS011;26075;43.320;21.920;2023-03-31T23:46:57;14.02;;;5.50;;
40367;SDS011;26075;43.320;21.920;2023-03-31T23:51:59;20.10;;;9.93;;
40367;SDS011;26075;43.320;21.920;2023-03-31T23:57:00;26.83;;;11.95;;
